Kingshill, Virgin Islands
Current Conditions -  °F | °C
As of 12:53 AM on Friday 28 Nov 2014 (Local Time) from TISX Reporting Station
Clear Clear  
Wind Chill: 72°   Ceiling: Unl
Heat Index: 72°   Visibility: 10mi
Dew Point: 67°   Wind: 6mph
Humidity: 84%   Direction: 350°N
Pressure: 29.95"   Gusts: NA
Location:  17.72°N, 64.78°W
Report Text: TISX 280453Z 35005KT 10SM CLR 22/19 A2995 RMK AO2 SLP139 T02220194 $
Loading
Personal Weather Stations






























Interactive Weather Map New forecast layout! Learn more

10-Day Weather Forecast

Advertisements
Track Severe Weather on mobile